sensor_id;sensor_type;location;lat;lon;timestamp;pressure;altitude;pressure_sealevel;temperature;humidity
6134;BME280;3098;42.678;23.364;2022-08-04T00:01:36;95076.25;;;18.10;100.00
6134;BME280;3098;42.678;23.364;2022-08-04T00:04:12;95072.03;;;17.93;100.00
6134;BME280;3098;42.678;23.364;2022-08-04T00:06:47;95074.78;;;17.97;100.00
6134;BME280;3098;42.678;23.364;2022-08-04T00:09:26;95068.69;;;17.80;100.00
6134;BME280;3098;42.678;23.364;2022-08-04T00:11:57;95080.69;;;17.87;100.00
6134;BME280;3098;42.678;23.364;2022-08-04T00:14:29;95071.91;;;17.70;100.00
6134;BME280;3098;42.678;23.364;2022-08-04T00:16:58;95062.19;;;17.50;100.00
6134;BME280;3098;42.678;23.364;2022-08-04T00:19:29;95067.25;;;17.67;100.00
6134;BME280;3098;42.678;23.364;2022-08-04T00:22:00;95062.47;;;17.76;100.00
6134;BME280;3098;42.678;23.364;2022-08-04T00:24:30;95067.84;;;17.76;100.00
6134;BME280;3098;42.678;23.364;2022-08-04T00:26:59;95061.78;;;17.64;100.00
6134;BME280;3098;42.678;23.364;2022-08-04T00:29:26;95068.44;;;17.70;100.00
6134;BME280;3098;42.678;23.364;2022-08-04T00:31:55;95068.63;;;17.61;100.00
6134;BME280;3098;42.678;23.364;2022-08-04T00:34:24;95044.31;;;17.54;100.00
6134;BME280;3098;42.678;23.364;2022-08-04T00:36:53;95075.38;;;17.55;100.00
6134;BME280;3098;42.678;23.364;2022-08-04T00:39:20;95081.25;;;17.45;100.00
6134;BME280;3098;42.678;23.364;2022-08-04T00:41:59;95084.44;;;17.51;100.00
6134;BME280;3098;42.678;23.364;2022-08-04T00:44:42;95081.41;;;17.52;100.00
6134;BME280;3098;42.678;23.364;2022-08-04T00:47:33;95053.38;;;17.65;100.00
6134;BME280;3098;42.678;23.364;2022-08-04T00:50:07;95072.66;;;17.71;100.00
6134;BME280;3098;42.678;23.364;2022-08-04T00:52:53;95065.84;;;17.73;100.00
6134;BME280;3098;42.678;23.364;2022-08-04T00:55:33;95069.13;;;17.67;100.00
6134;BME280;3098;42.678;23.364;2022-08-04T00:58:26;95080.88;;;17.78;100.00
6134;BME280;3098;42.678;23.364;2022-08-04T01:00:59;95087.91;;;17.67;100.00
6134;BME280;3098;42.678;23.364;2022-08-04T01:03:41;95091.09;;;17.72;100.00
6134;BME280;3098;42.678;23.364;2022-08-04T01:06:21;95089.38;;;17.64;100.00
6134;BME280;3098;42.678;23.364;2022-08-04T01:09:08;95095.91;;;17.51;100.00
6134;BME280;3098;42.678;23.364;2022-08-04T01:11:50;95092.38;;;17.32;100.00
6134;BME280;3098;42.678;23.364;2022-08-04T01:14:34;95091.78;;;17.22;100.00
6134;BME280;3098;42.678;23.364;2022-08-04T01:17:18;95092.00;;;17.02;100.00
6134;BME280;3098;42.678;23.364;2022-08-04T01:20:00;95102.09;;;16.93;100.00
6134;BME280;3098;42.678;23.364;2022-08-04T01:22:57;95100.13;;;17.05;100.00
6134;BME280;3098;42.678;23.364;2022-08-04T01:28:32;95098.53;;;17.48;100.00
6134;BME280;3098;42.678;23.364;2022-08-04T01:31:15;95078.41;;;17.54;100.00
6134;BME280;3098;42.678;23.364;2022-08-04T01:33:47;95065.31;;;17.52;100.00
6134;BME280;3098;42.678;23.364;2022-08-04T01:36:17;95086.44;;;17.69;100.00
6134;BME280;3098;42.678;23.364;2022-08-04T01:38:47;95089.47;;;17.68;100.00
6134;BME280;3098;42.678;23.364;2022-08-04T01:41:18;95090.00;;;17.73;100.00
6134;BME280;3098;42.678;23.364;2022-08-04T01:43:45;95076.25;;;17.59;100.00
6134;BME280;3098;42.678;23.364;2022-08-04T01:46:15;95095.09;;;17.63;100.00
6134;BME280;3098;42.678;23.364;2022-08-04T01:48:44;95088.31;;;17.38;100.00
6134;BME280;3098;42.678;23.364;2022-08-04T01:51:11;95097.22;;;17.42;100.00
6134;BME280;3098;42.678;23.364;2022-08-04T01:53:43;95104.81;;;17.40;100.00
6134;BME280;3098;42.678;23.364;2022-08-04T01:56:11;95091.56;;;17.59;100.00
6134;BME280;3098;42.678;23.364;2022-08-04T01:58:39;95087.72;;;17.60;100.00
6134;BME280;3098;42.678;23.364;2022-08-04T02:01:07;95069.88;;;17.52;100.00
6134;BME280;3098;42.678;23.364;2022-08-04T02:03:38;95056.22;;;17.25;100.00
6134;BME280;3098;42.678;23.364;2022-08-04T02:06:17;95079.06;;;17.19;100.00
6134;BME280;3098;42.678;23.364;2022-08-04T02:08:50;95081.03;;;17.07;100.00
6134;BME280;3098;42.678;23.364;2022-08-04T02:11:21;95077.81;;;17.01;100.00
6134;BME280;3098;42.678;23.364;2022-08-04T02:13:57;94980.34;;;16.35;100.00
6134;BME280;3098;42.678;23.364;2022-08-04T02:16:31;95046.81;;;16.73;100.00
6134;BME280;3098;42.678;23.364;2022-08-04T02:19:15;95068.94;;;16.70;100.00
6134;BME280;3098;42.678;23.364;2022-08-04T02:21:47;95075.50;;;16.72;100.00
6134;BME280;3098;42.678;23.364;2022-08-04T02:24:18;95076.09;;;16.65;100.00
6134;BME280;3098;42.678;23.364;2022-08-04T02:26:51;95088.19;;;16.59;100.00
6134;BME280;3098;42.678;23.364;2022-08-04T02:29:24;95079.47;;;16.62;100.00
6134;BME280;3098;42.678;23.364;2022-08-04T02:31:56;95083.34;;;16.93;100.00
6134;BME280;3098;42.678;23.364;2022-08-04T02:34:29;95016.78;;;16.51;100.00
6134;BME280;3098;42.678;23.364;2022-08-04T02:36:58;95082.97;;;16.94;100.00
6134;BME280;3098;42.678;23.364;2022-08-04T02:39:30;95064.88;;;16.76;100.00
6134;BME280;3098;42.678;23.364;2022-08-04T02:41:59;95074.25;;;16.82;100.00
6134;BME280;3098;42.678;23.364;2022-08-04T02:44:29;95070.25;;;16.76;100.00
6134;BME280;3098;42.678;23.364;2022-08-04T02:46:59;95084.69;;;16.87;100.00
6134;BME280;3098;42.678;23.364;2022-08-04T02:49:28;95092.22;;;16.81;100.00
6134;BME280;3098;42.678;23.364;2022-08-04T02:51:56;95084.84;;;16.78;100.00
6134;BME280;3098;42.678;23.364;2022-08-04T02:54:27;95083.78;;;16.67;100.00
6134;BME280;3098;42.678;23.364;2022-08-04T02:56:59;95085.16;;;16.49;100.00
6134;BME280;3098;42.678;23.364;2022-08-04T02:59:29;95090.88;;;16.35;100.00
6134;BME280;3098;42.678;23.364;2022-08-04T03:02:06;95058.59;;;16.28;100.00
6134;BME280;3098;42.678;23.364;2022-08-04T03:04:56;95085.16;;;16.49;100.00
6134;BME280;3098;42.678;23.364;2022-08-04T03:07:47;95084.75;;;16.35;100.00
6134;BME280;3098;42.678;23.364;2022-08-04T03:10:37;95006.84;;;15.84;100.00
6134;BME280;3098;42.678;23.364;2022-08-04T03:13:31;95083.06;;;16.42;100.00
6134;BME280;3098;42.678;23.364;2022-08-04T03:16:23;95092.66;;;16.55;100.00
6134;BME280;3098;42.678;23.364;2022-08-04T03:22:27;95085.81;;;16.58;100.00
6134;BME280;3098;42.678;23.364;2022-08-04T03:25:24;95089.78;;;16.76;100.00
6134;BME280;3098;42.678;23.364;2022-08-04T03:31:19;95079.22;;;17.11;100.00
6134;BME280;3098;42.678;23.364;2022-08-04T03:34:05;95086.16;;;17.28;100.00
6134;BME280;3098;42.678;23.364;2022-08-04T03:43:19;95085.47;;;17.31;100.00
6134;BME280;3098;42.678;23.364;2022-08-04T03:46:19;95095.91;;;17.51;100.00
6134;BME280;3098;42.678;23.364;2022-08-04T03:49:12;95095.03;;;17.59;100.00
6134;BME280;3098;42.678;23.364;2022-08-04T03:51:55;95086.34;;;17.50;100.00
6134;BME280;3098;42.678;23.364;2022-08-04T03:57:51;95094.97;;;17.28;100.00
6134;BME280;3098;42.678;23.364;2022-08-04T04:00:26;95072.22;;;17.22;100.00
6134;BME280;3098;42.678;23.364;2022-08-04T04:03:31;95074.56;;;17.08;100.00
6134;BME280;3098;42.678;23.364;2022-08-04T04:12:36;95096.03;;;16.96;100.00
6134;BME280;3098;42.678;23.364;2022-08-04T04:15:24;95096.47;;;16.98;100.00
6134;BME280;3098;42.678;23.364;2022-08-04T04:18:15;95105.19;;;16.95;100.00
6134;BME280;3098;42.678;23.364;2022-08-04T04:20:55;95087.09;;;16.76;100.00
6134;BME280;3098;42.678;23.364;2022-08-04T04:26:37;95112.59;;;17.13;100.00
6134;BME280;3098;42.678;23.364;2022-08-04T04:32:14;95110.03;;;17.48;100.00
6134;BME280;3098;42.678;23.364;2022-08-04T04:34:52;95075.13;;;16.86;100.00
6134;BME280;3098;42.678;23.364;2022-08-04T04:37:36;95107.94;;;17.10;100.00
6134;BME280;3098;42.678;23.364;2022-08-04T04:40:24;95097.69;;;17.00;100.00
6134;BME280;3098;42.678;23.364;2022-08-04T04:43:10;95113.91;;;17.35;100.00
6134;BME280;3098;42.678;23.364;2022-08-04T04:45:45;95121.63;;;17.37;100.00
6134;BME280;3098;42.678;23.364;2022-08-04T04:48:28;95111.69;;;17.68;100.00
6134;BME280;3098;42.678;23.364;2022-08-04T04:51:12;95046.97;;;17.23;100.00
6134;BME280;3098;42.678;23.364;2022-08-04T04:53:49;95114.75;;;18.17;100.00
6134;BME280;3098;42.678;23.364;2022-08-04T04:56:26;95125.78;;;18.47;100.00
6134;BME280;3098;42.678;23.364;2022-08-04T04:58:55;95117.47;;;18.71;100.00
6134;BME280;3098;42.678;23.364;2022-08-04T05:01:38;95112.22;;;18.98;100.00
6134;BME280;3098;42.678;23.364;2022-08-04T05:07:52;95127.53;;;19.16;100.00
6134;BME280;3098;42.678;23.364;2022-08-04T05:10:35;95111.13;;;19.21;100.00
6134;BME280;3098;42.678;23.364;2022-08-04T05:13:22;95108.78;;;19.62;100.00
6134;BME280;3098;42.678;23.364;2022-08-04T05:15:59;95063.22;;;18.85;100.00
6134;BME280;3098;42.678;23.364;2022-08-04T05:18:30;95107.41;;;19.48;100.00
6134;BME280;3098;42.678;23.364;2022-08-04T05:21:11;95121.53;;;20.70;100.00
6134;BME280;3098;42.678;23.364;2022-08-04T05:23:48;95137.38;;;20.75;100.00
6134;BME280;3098;42.678;23.364;2022-08-04T05:26:17;95125.00;;;20.70;98.64
6134;BME280;3098;42.678;23.364;2022-08-04T05:28:53;95133.38;;;21.61;96.64
6134;BME280;3098;42.678;23.364;2022-08-04T05:31:25;95134.50;;;22.59;91.06
6134;BME280;3098;42.678;23.364;2022-08-04T05:33:55;95117.88;;;23.47;87.20
6134;BME280;3098;42.678;23.364;2022-08-04T05:36:29;95134.94;;;24.21;80.74
6134;BME280;3098;42.678;23.364;2022-08-04T05:39:01;95129.13;;;24.05;80.83
6134;BME280;3098;42.678;23.364;2022-08-04T05:41:30;95065.28;;;23.55;79.15
6134;BME280;3098;42.678;23.364;2022-08-04T05:44:03;95116.72;;;24.04;80.28
6134;BME280;3098;42.678;23.364;2022-08-04T05:46:31;95134.34;;;25.84;72.30
6134;BME280;3098;42.678;23.364;2022-08-04T05:48:58;95142.06;;;27.75;64.06
6134;BME280;3098;42.678;23.364;2022-08-04T05:51:26;95108.63;;;27.98;61.37
6134;BME280;3098;42.678;23.364;2022-08-04T05:53:55;95129.50;;;28.08;61.01
6134;BME280;3098;42.678;23.364;2022-08-04T05:56:25;95121.72;;;28.76;57.81
6134;BME280;3098;42.678;23.364;2022-08-04T05:58:54;95131.06;;;30.06;53.18
6134;BME280;3098;42.678;23.364;2022-08-04T06:01:22;95139.41;;;31.08;51.01
6134;BME280;3098;42.678;23.364;2022-08-04T06:03:50;95144.09;;;31.37;48.23
6134;BME280;3098;42.678;23.364;2022-08-04T06:06:19;95149.34;;;32.35;45.86
6134;BME280;3098;42.678;23.364;2022-08-04T06:08:47;95093.59;;;31.50;44.38
6134;BME280;3098;42.678;23.364;2022-08-04T06:11:15;95136.72;;;29.83;48.50
6134;BME280;3098;42.678;23.364;2022-08-04T06:13:55;95125.03;;;28.64;51.22
6134;BME280;3098;42.678;23.364;2022-08-04T06:16:24;95149.00;;;27.19;58.15
6134;BME280;3098;42.678;23.364;2022-08-04T06:18:53;95129.91;;;25.49;65.50
6134;BME280;3098;42.678;23.364;2022-08-04T06:21:26;95061.31;;;24.51;67.39
6134;BME280;3098;42.678;23.364;2022-08-04T06:23:54;95101.22;;;24.47;69.54
6134;BME280;3098;42.678;23.364;2022-08-04T06:26:24;95132.59;;;23.88;75.78
6134;BME280;3098;42.678;23.364;2022-08-04T06:28:53;95137.28;;;24.19;74.66
6134;BME280;3098;42.678;23.364;2022-08-04T06:31:23;95141.50;;;24.52;74.25
6134;BME280;3098;42.678;23.364;2022-08-04T06:34:09;95144.19;;;24.59;72.96
6134;BME280;3098;42.678;23.364;2022-08-04T06:36:38;95126.34;;;24.83;71.61
6134;BME280;3098;42.678;23.364;2022-08-04T06:39:07;95121.66;;;24.90;70.83
6134;BME280;3098;42.678;23.364;2022-08-04T06:41:35;95136.38;;;25.73;67.84
6134;BME280;3098;42.678;23.364;2022-08-04T06:44:06;95126.41;;;24.47;72.23
6134;BME280;3098;42.678;23.364;2022-08-04T06:46:35;95150.78;;;23.87;74.90
6134;BME280;3098;42.678;23.364;2022-08-04T06:49:03;95120.25;;;24.15;75.79
6134;BME280;3098;42.678;23.364;2022-08-04T06:51:32;95148.91;;;24.16;76.46
6134;BME280;3098;42.678;23.364;2022-08-04T06:54:00;95131.09;;;24.15;77.08
6134;BME280;3098;42.678;23.364;2022-08-04T06:56:29;95148.09;;;24.05;76.49
6134;BME280;3098;42.678;23.364;2022-08-04T06:58:58;95129.16;;;24.26;75.49
6134;BME280;3098;42.678;23.364;2022-08-04T07:01:28;95141.44;;;24.84;73.53
6134;BME280;3098;42.678;23.364;2022-08-04T07:03:56;95124.66;;;25.13;70.47
6134;BME280;3098;42.678;23.364;2022-08-04T07:06:23;95150.84;;;25.52;69.05
6134;BME280;3098;42.678;23.364;2022-08-04T07:08:51;95151.75;;;25.97;67.17
6134;BME280;3098;42.678;23.364;2022-08-04T07:11:21;95147.63;;;26.26;64.47
6134;BME280;3098;42.678;23.364;2022-08-04T07:13:48;95129.50;;;26.91;62.42
6134;BME280;3098;42.678;23.364;2022-08-04T07:16:18;95122.47;;;29.16;54.54
6134;BME280;3098;42.678;23.364;2022-08-04T07:18:48;95146.25;;;30.71;48.81
6134;BME280;3098;42.678;23.364;2022-08-04T07:21:19;95148.19;;;30.10;49.55
6134;BME280;3098;42.678;23.364;2022-08-04T07:23:49;95141.88;;;31.19;47.07
6134;BME280;3098;42.678;23.364;2022-08-04T07:26:17;95130.22;;;31.15;46.47
6134;BME280;3098;42.678;23.364;2022-08-04T07:28:45;95132.50;;;29.94;49.79
6134;BME280;3098;42.678;23.364;2022-08-04T07:31:16;95117.63;;;30.11;48.36
6134;BME280;3098;42.678;23.364;2022-08-04T07:33:44;95134.69;;;30.96;45.43
6134;BME280;3098;42.678;23.364;2022-08-04T07:36:14;95134.13;;;32.56;42.46
6134;BME280;3098;42.678;23.364;2022-08-04T07:38:42;95135.81;;;31.53;44.44
6134;BME280;3098;42.678;23.364;2022-08-04T07:41:10;95124.47;;;30.52;46.40
6134;BME280;3098;42.678;23.364;2022-08-04T07:43:44;95139.34;;;31.78;43.42
6134;BME280;3098;42.678;23.364;2022-08-04T07:46:13;95055.84;;;31.42;42.98
6134;BME280;3098;42.678;23.364;2022-08-04T07:48:40;95055.06;;;31.79;43.23
6134;BME280;3098;42.678;23.364;2022-08-04T07:51:07;95126.28;;;31.95;44.26
6134;BME280;3098;42.678;23.364;2022-08-04T07:53:36;95130.00;;;32.73;41.83
6134;BME280;3098;42.678;23.364;2022-08-04T07:56:04;95097.63;;;31.46;42.91
6134;BME280;3098;42.678;23.364;2022-08-04T07:58:31;95136.25;;;31.10;46.12
6134;BME280;3098;42.678;23.364;2022-08-04T08:00:58;95128.78;;;30.82;46.35
6134;BME280;3098;42.678;23.364;2022-08-04T08:03:26;95125.78;;;30.15;47.33
6134;BME280;3098;42.678;23.364;2022-08-04T08:05:54;95119.28;;;30.41;47.07
6134;BME280;3098;42.678;23.364;2022-08-04T08:08:21;95128.53;;;30.47;46.44
6134;BME280;3098;42.678;23.364;2022-08-04T08:10:50;95117.97;;;30.30;46.56
6134;BME280;3098;42.678;23.364;2022-08-04T08:13:18;95136.81;;;32.22;42.88
6134;BME280;3098;42.678;23.364;2022-08-04T08:15:45;95115.38;;;32.76;40.52
6134;BME280;3098;42.678;23.364;2022-08-04T08:18:13;95118.06;;;32.08;41.47
6134;BME280;3098;42.678;23.364;2022-08-04T08:20:43;95114.06;;;32.47;41.75
6134;BME280;3098;42.678;23.364;2022-08-04T08:23:11;95121.97;;;34.45;37.93
6134;BME280;3098;42.678;23.364;2022-08-04T08:25:38;95135.25;;;33.98;38.76
6134;BME280;3098;42.678;23.364;2022-08-04T08:28:07;95139.59;;;32.69;40.54
6134;BME280;3098;42.678;23.364;2022-08-04T08:30:34;95128.94;;;32.92;40.52
6134;BME280;3098;42.678;23.364;2022-08-04T08:33:05;95122.44;;;32.99;38.92
6134;BME280;3098;42.678;23.364;2022-08-04T08:35:43;95109.69;;;31.36;43.14
6134;BME280;3098;42.678;23.364;2022-08-04T08:38:13;95125.09;;;32.90;41.52
6134;BME280;3098;42.678;23.364;2022-08-04T08:40:49;95142.81;;;33.23;41.28
6134;BME280;3098;42.678;23.364;2022-08-04T08:43:34;95088.06;;;32.94;40.45
6134;BME280;3098;42.678;23.364;2022-08-04T08:46:37;95130.78;;;32.14;42.79
6134;BME280;3098;42.678;23.364;2022-08-04T08:52:36;95108.84;;;31.89;40.97
6134;BME280;3098;42.678;23.364;2022-08-04T08:55:23;95109.41;;;31.59;42.21
6134;BME280;3098;42.678;23.364;2022-08-04T08:58:08;95126.38;;;31.79;41.70
6134;BME280;3098;42.678;23.364;2022-08-04T09:00:50;95110.91;;;30.93;43.44
6134;BME280;3098;42.678;23.364;2022-08-04T09:03:39;95073.19;;;29.75;44.61
6134;BME280;3098;42.678;23.364;2022-08-04T09:06:19;95107.47;;;31.43;42.59
6134;BME280;3098;42.678;23.364;2022-08-04T09:09:03;95117.41;;;31.78;41.12
6134;BME280;3098;42.678;23.364;2022-08-04T09:11:38;95112.97;;;30.73;43.68
6134;BME280;3098;42.678;23.364;2022-08-04T09:14:16;95081.94;;;30.92;43.58
6134;BME280;3098;42.678;23.364;2022-08-04T09:16:53;95090.81;;;30.23;44.34
6134;BME280;3098;42.678;23.364;2022-08-04T09:19:26;95100.53;;;29.23;47.01
6134;BME280;3098;42.678;23.364;2022-08-04T09:22:00;95101.28;;;28.61;48.35
6134;BME280;3098;42.678;23.364;2022-08-04T09:24:35;95101.53;;;30.62;46.21
6134;BME280;3098;42.678;23.364;2022-08-04T09:27:12;95102.81;;;32.54;39.31
6134;BME280;3098;42.678;23.364;2022-08-04T09:29:47;95081.56;;;33.23;35.18
6134;BME280;3098;42.678;23.364;2022-08-04T09:32:31;95096.97;;;35.40;32.49
6134;BME280;3098;42.678;23.364;2022-08-04T09:35:08;95081.47;;;35.93;30.99
6134;BME280;3098;42.678;23.364;2022-08-04T09:37:46;95110.34;;;34.69;32.38
6134;BME280;3098;42.678;23.364;2022-08-04T09:40:20;95086.16;;;36.11;30.99
6134;BME280;3098;42.678;23.364;2022-08-04T09:43:00;95036.34;;;36.05;29.86
6134;BME280;3098;42.678;23.364;2022-08-04T09:45:32;95101.50;;;36.12;31.45
6134;BME280;3098;42.678;23.364;2022-08-04T09:48:07;95091.22;;;34.56;32.31
6134;BME280;3098;42.678;23.364;2022-08-04T09:50:37;95057.56;;;31.99;34.95
6134;BME280;3098;42.678;23.364;2022-08-04T09:53:12;95103.56;;;31.82;37.55
6134;BME280;3098;42.678;23.364;2022-08-04T09:55:59;95092.63;;;33.10;35.32
6134;BME280;3098;42.678;23.364;2022-08-04T09:58:39;95102.03;;;32.87;35.22
6134;BME280;3098;42.678;23.364;2022-08-04T10:01:13;95076.69;;;31.77;36.53
6134;BME280;3098;42.678;23.364;2022-08-04T10:03:48;95094.97;;;31.42;37.88
6134;BME280;3098;42.678;23.364;2022-08-04T10:09:26;95088.22;;;31.72;36.23
6134;BME280;3098;42.678;23.364;2022-08-04T10:12:04;95066.63;;;30.95;36.79
6134;BME280;3098;42.678;23.364;2022-08-04T10:14:37;95088.22;;;31.72;35.59
6134;BME280;3098;42.678;23.364;2022-08-04T10:17:25;95088.22;;;32.10;36.18
6134;BME280;3098;42.678;23.364;2022-08-04T10:19:59;95057.59;;;32.58;34.29
6134;BME280;3098;42.678;23.364;2022-08-04T10:22:35;95064.56;;;32.72;34.37
6134;BME280;3098;42.678;23.364;2022-08-04T10:25:09;95059.78;;;31.91;34.88
6134;BME280;3098;42.678;23.364;2022-08-04T10:27:45;95047.50;;;31.70;34.41
6134;BME280;3098;42.678;23.364;2022-08-04T10:30:16;95069.94;;;31.15;35.00
6134;BME280;3098;42.678;23.364;2022-08-04T10:32:49;95077.56;;;33.02;34.36
6134;BME280;3098;42.678;23.364;2022-08-04T10:35:22;95031.31;;;32.57;32.79
6134;BME280;3098;42.678;23.364;2022-08-04T10:38:00;95030.06;;;32.36;33.53
6134;BME280;3098;42.678;23.364;2022-08-04T10:40:33;95053.00;;;31.83;34.85
6134;BME280;3098;42.678;23.364;2022-08-04T10:43:06;95059.25;;;32.43;34.17
6134;BME280;3098;42.678;23.364;2022-08-04T10:45:40;95054.31;;;34.53;31.61
6134;BME280;3098;42.678;23.364;2022-08-04T10:48:14;95048.97;;;35.13;31.70
6134;BME280;3098;42.678;23.364;2022-08-04T10:50:52;95044.22;;;34.32;31.57
6134;BME280;3098;42.678;23.364;2022-08-04T10:53:26;95043.00;;;34.70;30.64
6134;BME280;3098;42.678;23.364;2022-08-04T10:56:00;95003.78;;;35.53;29.03
6134;BME280;3098;42.678;23.364;2022-08-04T10:58:34;95067.03;;;36.31;29.17
6134;BME280;3098;42.678;23.364;2022-08-04T11:01:06;95053.81;;;34.09;28.91
6134;BME280;3098;42.678;23.364;2022-08-04T11:03:46;95034.84;;;35.20;27.65
6134;BME280;3098;42.678;23.364;2022-08-04T11:06:16;95043.88;;;36.52;24.44
6134;BME280;3098;42.678;23.364;2022-08-04T11:08:49;95054.09;;;36.13;24.32
6134;BME280;3098;42.678;23.364;2022-08-04T11:11:23;95055.59;;;35.40;25.78
6134;BME280;3098;42.678;23.364;2022-08-04T11:13:58;95049.97;;;35.25;25.82
6134;BME280;3098;42.678;23.364;2022-08-04T11:16:30;95025.13;;;33.89;26.97
6134;BME280;3098;42.678;23.364;2022-08-04T11:19:07;95020.97;;;32.83;28.66
6134;BME280;3098;42.678;23.364;2022-08-04T11:21:42;94967.38;;;31.03;31.45
6134;BME280;3098;42.678;23.364;2022-08-04T11:24:15;95048.91;;;30.83;32.10
6134;BME280;3098;42.678;23.364;2022-08-04T11:26:48;95041.72;;;31.81;31.02
6134;BME280;3098;42.678;23.364;2022-08-04T11:29:23;95002.75;;;31.86;30.21
6134;BME280;3098;42.678;23.364;2022-08-04T11:31:53;95039.13;;;30.98;32.02
6134;BME280;3098;42.678;23.364;2022-08-04T11:34:23;95024.34;;;32.09;29.98
6134;BME280;3098;42.678;23.364;2022-08-04T11:36:58;95030.16;;;32.67;30.93
6134;BME280;3098;42.678;23.364;2022-08-04T11:39:34;95028.16;;;32.12;28.38
6134;BME280;3098;42.678;23.364;2022-08-04T11:42:06;95030.94;;;30.25;30.55
6134;BME280;3098;42.678;23.364;2022-08-04T11:44:42;95027.31;;;29.99;31.17
6134;BME280;3098;42.678;23.364;2022-08-04T11:47:22;95029.97;;;30.47;31.72
6134;BME280;3098;42.678;23.364;2022-08-04T11:49:57;95008.47;;;30.62;32.30
6134;BME280;3098;42.678;23.364;2022-08-04T11:52:28;94960.94;;;29.50;33.31
6134;BME280;3098;42.678;23.364;2022-08-04T11:54:57;95004.75;;;29.95;33.74
6134;BME280;3098;42.678;23.364;2022-08-04T11:57:28;94886.88;;;28.96;34.38
6134;BME280;3098;42.678;23.364;2022-08-04T11:59:56;95024.34;;;30.38;34.63
6134;BME280;3098;42.678;23.364;2022-08-04T12:03:00;94982.78;;;29.98;33.20
6134;BME280;3098;42.678;23.364;2022-08-04T12:05:35;95007.06;;;29.96;32.96
6134;BME280;3098;42.678;23.364;2022-08-04T12:08:21;94922.84;;;29.27;33.54
6134;BME280;3098;42.678;23.364;2022-08-04T12:11:02;94996.56;;;30.24;34.66
6134;BME280;3098;42.678;23.364;2022-08-04T12:13:38;95014.66;;;30.50;32.33
6134;BME280;3098;42.678;23.364;2022-08-04T12:16:13;94962.78;;;30.30;31.83
6134;BME280;3098;42.678;23.364;2022-08-04T12:18:46;95028.19;;;30.98;31.85
6134;BME280;3098;42.678;23.364;2022-08-04T12:21:23;95014.16;;;30.96;31.08
6134;BME280;3098;42.678;23.364;2022-08-04T12:24:00;95008.50;;;30.46;32.25
6134;BME280;3098;42.678;23.364;2022-08-04T12:26:31;95014.31;;;30.03;32.80
6134;BME280;3098;42.678;23.364;2022-08-04T12:29:01;94999.53;;;30.00;31.89
6134;BME280;3098;42.678;23.364;2022-08-04T12:31:35;94967.16;;;29.67;31.89
6134;BME280;3098;42.678;23.364;2022-08-04T12:34:09;94981.59;;;29.51;32.86
6134;BME280;3098;42.678;23.364;2022-08-04T12:36:42;94999.78;;;29.74;33.12
6134;BME280;3098;42.678;23.364;2022-08-04T12:39:16;95014.00;;;30.30;33.31
6134;BME280;3098;42.678;23.364;2022-08-04T12:42:00;94944.03;;;30.29;33.88
6134;BME280;3098;42.678;23.364;2022-08-04T12:44:33;94950.22;;;29.72;33.50
6134;BME280;3098;42.678;23.364;2022-08-04T12:47:02;94988.28;;;30.27;34.31
6134;BME280;3098;42.678;23.364;2022-08-04T12:49:31;95004.09;;;30.77;31.47
6134;BME280;3098;42.678;23.364;2022-08-04T12:52:04;94956.66;;;29.81;33.26
6134;BME280;3098;42.678;23.364;2022-08-04T12:54:36;94984.72;;;30.14;32.39
6134;BME280;3098;42.678;23.364;2022-08-04T12:57:05;94992.03;;;30.62;33.09
6134;BME280;3098;42.678;23.364;2022-08-04T12:59:37;94998.81;;;30.99;32.53
6134;BME280;3098;42.678;23.364;2022-08-04T13:02:11;94934.84;;;30.51;32.17
6134;BME280;3098;42.678;23.364;2022-08-04T13:04:42;94996.00;;;30.73;32.27
6134;BME280;3098;42.678;23.364;2022-08-04T13:07:14;94991.03;;;30.56;32.43
6134;BME280;3098;42.678;23.364;2022-08-04T13:09:44;94917.16;;;29.98;32.96
6134;BME280;3098;42.678;23.364;2022-08-04T13:12:13;94998.09;;;30.41;32.70
6134;BME280;3098;42.678;23.364;2022-08-04T13:14:42;94986.00;;;30.09;32.58
6134;BME280;3098;42.678;23.364;2022-08-04T13:17:23;94991.63;;;30.18;33.58
6134;BME280;3098;42.678;23.364;2022-08-04T13:20:03;94987.88;;;30.12;32.80
6134;BME280;3098;42.678;23.364;2022-08-04T13:22:34;94991.03;;;30.56;33.50
6134;BME280;3098;42.678;23.364;2022-08-04T13:25:24;94967.47;;;30.30;34.00
6134;BME280;3098;42.678;23.364;2022-08-04T13:27:54;94952.53;;;29.89;33.32
6134;BME280;3098;42.678;23.364;2022-08-04T13:30:21;94985.06;;;30.16;33.64
6134;BME280;3098;42.678;23.364;2022-08-04T13:32:54;94982.50;;;30.09;33.06
6134;BME280;3098;42.678;23.364;2022-08-04T13:35:22;94980.06;;;29.98;32.88
6134;BME280;3098;42.678;23.364;2022-08-04T13:37:51;94971.28;;;30.19;32.87
6134;BME280;3098;42.678;23.364;2022-08-04T13:40:22;94953.44;;;30.44;32.63
6134;BME280;3098;42.678;23.364;2022-08-04T13:42:51;94968.06;;;30.37;32.07
6134;BME280;3098;42.678;23.364;2022-08-04T13:45:20;94908.25;;;30.23;31.55
6134;BME280;3098;42.678;23.364;2022-08-04T13:47:50;94941.66;;;30.72;31.11
6134;BME280;3098;42.678;23.364;2022-08-04T13:50:20;94954.66;;;31.22;30.95
6134;BME280;3098;42.678;23.364;2022-08-04T13:52:51;94966.22;;;30.75;32.30
6134;BME280;3098;42.678;23.364;2022-08-04T13:55:23;94960.06;;;30.71;33.43
6134;BME280;3098;42.678;23.364;2022-08-04T13:57:55;94959.22;;;30.17;33.28
6134;BME280;3098;42.678;23.364;2022-08-04T14:00:24;94951.53;;;29.83;34.81
6134;BME280;3098;42.678;23.364;2022-08-04T14:02:58;94954.94;;;29.55;35.03
6134;BME280;3098;42.678;23.364;2022-08-04T14:05:28;94952.66;;;30.14;33.31
6134;BME280;3098;42.678;23.364;2022-08-04T14:07:59;94950.44;;;30.67;32.52
6134;BME280;3098;42.678;23.364;2022-08-04T14:10:33;94922.28;;;30.66;33.23
6134;BME280;3098;42.678;23.364;2022-08-04T14:13:03;94956.06;;;30.18;33.28
6134;BME280;3098;42.678;23.364;2022-08-04T14:15:33;94935.56;;;29.66;34.05
6134;BME280;3098;42.678;23.364;2022-08-04T14:18:21;94911.50;;;30.05;33.13
6134;BME280;3098;42.678;23.364;2022-08-04T14:21:00;94928.53;;;30.80;32.37
6134;BME280;3098;42.678;23.364;2022-08-04T14:23:29;94940.28;;;30.39;33.13
6134;BME280;3098;42.678;23.364;2022-08-04T14:26:15;94942.09;;;30.00;33.50
6134;BME280;3098;42.678;23.364;2022-08-04T14:28:44;94942.25;;;30.09;33.88